logo tempoitalia

Diretta Meteo Gluecksburg-Meierwik, Germanialunedì 31 agosto ore 07:20

Mappa
Sereno 16 °C Sereno 24 Ore: T.min 15 T.max 21
Ponente Sud/Sud-Est Km/h 13 Punto di rugiada: 16 °C Umidità: 100% Visibilità: 8 Km
Il sole sorge alle: 06:27 Il sole tramonta alle: 20:17
31 Agosto 2026 07:20 tempo osservato: Sereno Sereno 16 100 1006 vento: Nord S/SE 13
31 Agosto 2026 06:20 tempo osservato: Sereno Sereno 16 93 1007 vento: Nord S 18.5
31 Agosto 2026 05:20 tempo osservato: Sereno Sereno 16 93 1007 vento: Nord S/SE 18.5
31 Agosto 2026 04:20 tempo osservato: Sereno Sereno 16 93 1008 vento: Nord S 16.7
31 Agosto 2026 03:20 tempo osservato: Sereno Sereno 15 100 1008 vento: Nord S/SE 11.1
31 Agosto 2026 02:20 tempo osservato: Sereno Sereno 15 100 1009 vento: Nord S 14.8
31 Agosto 2026 01:20 tempo osservato: Sereno Sereno 15 93 1009 vento: Nord S 13
31 Agosto 2026 00:20 tempo osservato: Sereno Sereno 15 93 1009 vento: Nord S 13
30 Agosto 2026 23:20 tempo osservato: Sereno Sereno 15 93 1009 vento: Nord S 11.1
30 Agosto 2026 22:20 tempo osservato: Sereno Sereno 16 87 1009 vento: Nord S/SO 14.8
30 Agosto 2026 21:20 tempo osservato: Sereno Sereno 15 93 1009 vento: Nord O/SO 11.1
30 Agosto 2026 20:20 tempo osservato: Sereno Sereno 17 82 1009 vento: Nord O/SO 20.3
30 Agosto 2026 19:20 tempo osservato: Sereno Sereno 18 77 1008 vento: Nord O 33.3
30 Agosto 2026 18:20 tempo osservato: Sereno Sereno 19 72 1008 vento: Nord O 35.2
30 Agosto 2026 17:20 tempo osservato: Sereno Sereno 19 72 1007 vento: Nord O 44.4
30 Agosto 2026 16:20 tempo osservato: Sereno Sereno 19 77 1006 vento: Nord O 44.4
30 Agosto 2026 15:20 tempo osservato: Sereno Sereno 19 82 1005 vento: Nord O 46.3
30 Agosto 2026 14:20 tempo osservato: Sereno Sereno 20 82 1004 vento: Nord O 44.4
30 Agosto 2026 13:20 tempo osservato: Sereno Sereno 21 77 1003 vento: Nord O/SO 35.2
30 Agosto 2026 12:20 tempo osservato: Sereno Sereno 20 82 1002 vento: Nord O/SO 35.2
30 Agosto 2026 11:20 tempo osservato: Sereno Sereno 19 93 1001 vento: Nord SO 20.3
30 Agosto 2026 10:20 tempo osservato: Sereno Sereno 19 88 1001 vento: Nord S/SO 22.2
30 Agosto 2026 09:20 tempo osservato: Sereno Sereno 17 100 1001 vento: Nord S/SO 18.5
30 Agosto 2026 08:20 tempo osservato: Sereno Sereno 17 100 1000 vento: Nord S 24